Old Bridge, New Jersey
Current Conditions -  °F | °C
As of 4:35 PM on Tuesday 21 Oct 2014 (Local Time) from KBLM Reporting Station
Scattered Clouds Scattered Clouds  
Wind Chill: 61°   Ceiling: Unl
Heat Index: 61°   Visibility: 10mi
Dew Point: 52°   Wind: 5mph
Humidity: 72%   Direction: 50°NE
Pressure: 29.82"   Gusts: NA
Location:  40.36°N, 74.34°W
Report Text: KBLM 212035Z AUTO 05004KT 10SM FEW060 SCT095 16/11 A2982 RMK AO1
Loading
Personal Weather Stations






























Interactive Weather Map
Tropical Storm Tracking
New forecast layout! Learn more

10-Day Weather Forecast

Advertisements
Track Severe Weather on mobile